createdAt,value
2023-04-15T00:01:11.875Z,6.90
2023-04-15T00:03:39.126Z,6.90
2023-04-15T00:06:06.141Z,6.90
2023-04-15T00:08:33.236Z,6.90
2023-04-15T00:11:05.810Z,6.90
2023-04-15T00:13:35.452Z,6.90
2023-04-15T00:16:02.692Z,6.90
2023-04-15T00:18:29.881Z,6.90
2023-04-15T00:20:56.728Z,6.90
2023-04-15T00:23:23.493Z,6.80
2023-04-15T00:25:51.128Z,6.80
2023-04-15T00:28:18.458Z,6.80
2023-04-15T00:30:46.122Z,6.80
2023-04-15T00:33:14.356Z,6.80
2023-04-15T00:35:41.522Z,6.72
2023-04-15T00:38:08.739Z,6.70
2023-04-15T00:40:35.981Z,6.70
2023-04-15T00:43:02.948Z,6.70
2023-04-15T00:45:30.212Z,6.60
2023-04-15T00:47:56.930Z,6.60
2023-04-15T00:50:23.791Z,6.60
2023-04-15T00:52:50.802Z,6.60
2023-04-15T00:55:17.492Z,6.58
2023-04-15T00:57:44.700Z,6.50
2023-04-15T01:00:12.300Z,6.50
2023-04-15T01:02:39.620Z,6.50
2023-04-15T01:05:07.696Z,6.50
2023-04-15T01:07:34.328Z,6.50
2023-04-15T01:10:04.720Z,6.60
2023-04-15T01:12:33.330Z,6.60
2023-04-15T01:15:01.663Z,6.60
2023-04-15T01:17:28.346Z,6.60
2023-04-15T01:19:57.968Z,6.56
2023-04-15T01:22:26.680Z,6.60
2023-04-15T01:25:13.188Z,6.50
2023-04-15T01:27:42.515Z,6.50
2023-04-15T01:30:11.551Z,6.50
2023-04-15T01:32:38.752Z,6.50
2023-04-15T01:35:06.422Z,6.50
2023-04-15T01:37:33.735Z,6.50
2023-04-15T01:40:00.403Z,6.50
2023-04-15T01:42:27.760Z,6.48
2023-04-15T01:44:54.854Z,6.40
2023-04-15T01:47:21.652Z,6.40
2023-04-15T01:49:48.506Z,6.40
2023-04-15T01:52:15.803Z,6.40
2023-04-15T01:54:42.592Z,6.40
2023-04-15T01:57:09.898Z,6.38
2023-04-15T01:59:37.340Z,6.38
2023-04-15T02:02:05.498Z,6.30
2023-04-15T02:04:32.687Z,6.30
2023-04-15T02:07:00.739Z,6.30
2023-04-15T02:09:27.909Z,6.30
2023-04-15T02:11:54.504Z,6.30
2023-04-15T02:14:21.499Z,6.30
2023-04-15T02:16:48.413Z,6.30
2023-04-15T02:19:15.850Z,6.30
2023-04-15T02:21:42.443Z,6.30
2023-04-15T02:24:09.170Z,6.30
2023-04-15T02:26:36.295Z,6.30
2023-04-15T02:29:04.265Z,6.30
2023-04-15T02:31:34.094Z,6.30
2023-04-15T02:34:03.073Z,6.30
2023-04-15T02:36:31.663Z,6.30
2023-04-15T02:38:58.704Z,6.40
2023-04-15T02:41:28.533Z,6.40
2023-04-15T02:43:55.499Z,6.40
2023-04-15T02:46:23.051Z,6.40
2023-04-15T02:48:50.549Z,6.40
2023-04-15T02:51:22.879Z,6.34
2023-04-15T02:53:50.911Z,6.30
2023-04-15T02:56:19.348Z,6.30
2023-04-15T02:58:46.234Z,6.28
2023-04-15T03:01:13.674Z,6.30
2023-04-15T03:03:41.093Z,6.30
2023-04-15T03:06:09.083Z,6.30
2023-04-15T03:08:36.439Z,6.30
2023-04-15T03:11:04.488Z,6.30
2023-04-15T03:13:31.756Z,6.26
2023-04-15T03:15:59.237Z,6.20
2023-04-15T03:18:27.155Z,6.20
2023-04-15T03:20:53.813Z,6.20
2023-04-15T03:23:20.903Z,6.20
2023-04-15T03:25:48.143Z,6.20
2023-04-15T03:28:15.024Z,6.20
2023-04-15T03:30:41.907Z,6.20
2023-04-15T03:33:09.097Z,6.20
2023-04-15T03:35:36.353Z,6.26
2023-04-15T03:38:02.966Z,6.30
2023-04-15T03:40:29.671Z,6.30
2023-04-15T03:42:56.328Z,6.30
2023-04-15T03:45:22.894Z,6.30
2023-04-15T03:47:49.935Z,6.30
2023-04-15T03:50:16.717Z,6.30
2023-04-15T03:52:45.059Z,6.30
2023-04-15T03:55:11.714Z,6.32
2023-04-15T03:57:39.243Z,6.32
2023-04-15T04:00:09.329Z,6.30
2023-04-15T04:02:39.414Z,6.30
2023-04-15T04:05:06.374Z,6.26
2023-04-15T04:07:33.034Z,6.24
2023-04-15T04:09:59.730Z,6.20
2023-04-15T04:12:26.323Z,6.20
2023-04-15T04:14:52.903Z,6.18
2023-04-15T04:17:19.656Z,6.12
2023-04-15T04:19:46.486Z,6.20
2023-04-15T04:22:13.074Z,6.20
2023-04-15T04:24:39.888Z,6.20
2023-04-15T04:27:06.516Z,6.20
2023-04-15T04:29:33.193Z,6.20
2023-04-15T04:31:59.855Z,6.20
2023-04-15T04:34:26.596Z,6.30
2023-04-15T04:36:53.181Z,6.30
2023-04-15T04:39:19.841Z,6.30
2023-04-15T04:41:46.708Z,6.30
2023-04-15T04:44:13.277Z,6.30
2023-04-15T04:46:39.866Z,6.30
2023-04-15T04:49:07.064Z,6.30
2023-04-15T04:51:33.848Z,6.30
2023-04-15T04:54:01.812Z,6.36
2023-04-15T04:56:30.330Z,6.40
2023-04-15T04:58:57.177Z,6.30
2023-04-15T05:01:23.882Z,6.34
2023-04-15T05:03:50.743Z,6.30
2023-04-15T05:06:17.468Z,6.30
2023-04-15T05:08:44.038Z,6.34
2023-04-15T05:11:10.628Z,6.38
2023-04-15T05:13:38.767Z,6.40
2023-04-15T05:16:06.308Z,6.40
2023-04-15T05:18:33.543Z,6.40
2023-04-15T05:21:00.401Z,6.40
2023-04-15T05:23:27.600Z,6.40
2023-04-15T05:25:54.240Z,6.40
2023-04-15T05:28:21.233Z,6.40
2023-04-15T05:30:47.931Z,6.40
2023-04-15T05:33:14.690Z,6.40
2023-04-15T05:35:41.475Z,6.44
2023-04-15T05:38:08.297Z,6.50
2023-04-15T05:40:34.903Z,6.50
2023-04-15T05:43:01.482Z,6.50
2023-04-15T05:45:28.049Z,6.50
2023-04-15T05:47:54.852Z,6.50
2023-04-15T05:50:22.152Z,6.50
2023-04-15T05:52:48.783Z,6.50
2023-04-15T05:55:15.536Z,6.50
2023-04-15T05:57:42.312Z,6.50
2023-04-15T06:00:10.192Z,6.50
2023-04-15T06:02:37.195Z,6.50
2023-04-15T06:05:05.829Z,6.50
2023-04-15T06:07:32.448Z,6.50
2023-04-15T06:09:59.013Z,6.50
2023-04-15T06:12:25.732Z,6.50
2023-04-15T06:14:52.367Z,6.52
2023-04-15T06:17:19.315Z,6.60
2023-04-15T06:19:46.034Z,6.60
2023-04-15T06:22:12.651Z,6.60
2023-04-15T06:24:39.295Z,6.60
2023-04-15T06:27:05.895Z,6.70
2023-04-15T06:29:32.490Z,6.70
2023-04-15T06:31:59.054Z,6.78
2023-04-15T06:34:25.643Z,6.80
2023-04-15T06:36:52.266Z,6.80
2023-04-15T06:39:18.886Z,6.80
2023-04-15T06:41:45.567Z,6.80
2023-04-15T06:44:12.633Z,6.80
2023-04-15T06:46:39.221Z,6.80
2023-04-15T06:49:05.900Z,6.80
2023-04-15T06:51:32.826Z,6.80
2023-04-15T06:53:59.548Z,6.80
2023-04-15T06:56:26.241Z,6.88
2023-04-15T06:58:54.255Z,6.90
2023-04-15T07:01:21.493Z,6.94
2023-04-15T07:03:48.304Z,7.00
2023-04-15T07:06:15.241Z,7.04
2023-04-15T07:08:41.940Z,7.00
2023-04-15T07:11:08.812Z,7.00
2023-04-15T07:13:35.679Z,7.00
2023-04-15T07:16:02.459Z,7.02
2023-04-15T07:18:29.107Z,7.10
2023-04-15T07:20:56.170Z,7.16
2023-04-15T07:23:23.340Z,7.20
2023-04-15T07:25:49.969Z,7.26
2023-04-15T07:28:16.714Z,7.30
2023-04-15T07:30:43.454Z,7.40
2023-04-15T07:33:10.070Z,7.40
2023-04-15T07:35:36.834Z,7.40
2023-04-15T07:38:03.826Z,7.48
2023-04-15T07:40:30.663Z,7.50
2023-04-15T07:42:58.478Z,7.50
2023-04-15T07:45:25.290Z,7.50
2023-04-15T07:47:52.068Z,7.46
2023-04-15T07:50:19.839Z,7.40
2023-04-15T07:52:46.508Z,7.40
2023-04-15T07:55:14.443Z,7.40
2023-04-15T07:57:41.067Z,7.40
2023-04-15T08:00:08.643Z,7.40
2023-04-15T08:02:42.786Z,7.40
2023-04-15T08:05:11.015Z,7.48
2023-04-15T08:07:38.440Z,7.50
2023-04-15T08:10:06.962Z,7.50
2023-04-15T08:12:33.655Z,7.50
2023-04-15T08:15:01.099Z,7.50
2023-04-15T08:17:28.463Z,7.50
2023-04-15T08:19:55.274Z,7.60
2023-04-15T08:22:22.583Z,7.68
2023-04-15T08:24:49.219Z,7.70
2023-04-15T08:27:15.957Z,7.70
2023-04-15T08:29:42.741Z,7.70
2023-04-15T08:32:09.657Z,7.70
2023-04-15T08:34:36.811Z,7.60
2023-04-15T08:37:03.418Z,7.60
2023-04-15T08:39:30.280Z,7.56
2023-04-15T08:42:03.663Z,7.50
2023-04-15T08:44:34.609Z,7.52
2023-04-15T08:47:03.099Z,7.60
2023-04-15T08:49:31.423Z,7.60
2023-04-15T08:51:59.476Z,7.60
2023-04-15T08:54:28.575Z,7.70
2023-04-15T08:56:58.605Z,7.80
2023-04-15T08:59:25.777Z,7.90
2023-04-15T09:01:53.717Z,7.98
2023-04-15T09:04:20.563Z,8.02
2023-04-15T09:06:47.262Z,8.20
2023-04-15T09:09:14.580Z,8.20
2023-04-15T09:11:42.586Z,8.24
2023-04-15T09:14:09.408Z,8.20
2023-04-15T09:17:02.056Z,8.20
2023-04-15T09:19:30.771Z,8.32
2023-04-15T09:21:59.939Z,8.40
2023-04-15T09:24:40.942Z,8.40
2023-04-15T09:27:07.882Z,8.40
2023-04-15T09:29:34.685Z,8.50
2023-04-15T09:32:16.457Z,8.50
2023-04-15T09:34:44.472Z,8.60
2023-04-15T09:37:11.299Z,8.60
2023-04-15T09:39:52.917Z,8.70
2023-04-15T09:42:27.436Z,8.70
2023-04-15T09:44:54.371Z,8.76
2023-04-15T09:47:32.130Z,8.70
2023-04-15T09:50:00.313Z,8.80
2023-04-15T09:52:28.794Z,8.90
2023-04-15T09:54:59.641Z,8.92
2023-04-15T09:57:36.315Z,8.94
2023-04-15T10:00:08.868Z,9.00
2023-04-15T10:02:37.188Z,8.90
2023-04-15T10:05:04.736Z,9.00
2023-04-15T10:07:32.821Z,9.00
2023-04-15T10:10:03.791Z,9.00
2023-04-15T10:12:33.472Z,9.10
2023-04-15T10:15:07.081Z,9.12
2023-04-15T10:17:37.288Z,9.24
2023-04-15T10:20:07.560Z,9.24
2023-04-15T10:22:36.721Z,9.24
2023-04-15T10:25:04.574Z,9.20
2023-04-15T10:27:31.462Z,9.10
2023-04-15T10:30:03.692Z,9.10
2023-04-15T10:32:31.150Z,9.16
2023-04-15T10:34:58.725Z,9.20
2023-04-15T10:37:38.266Z,9.28
2023-04-15T10:40:34.697Z,9.30
2023-04-15T10:43:02.782Z,9.30
2023-04-15T10:45:34.086Z,9.30
2023-04-15T10:48:08.112Z,9.40
2023-04-15T10:50:35.146Z,9.30
2023-04-15T10:53:05.395Z,9.20
2023-04-15T10:55:34.204Z,9.20
2023-04-15T10:58:02.364Z,9.10
2023-04-15T11:00:32.124Z,9.00
2023-04-15T11:03:08.127Z,9.00
2023-04-15T11:05:54.214Z,9.00
2023-04-15T11:08:41.075Z,8.90
2023-04-15T11:11:07.778Z,8.90
2023-04-15T11:13:34.439Z,8.90
2023-04-15T11:16:03.305Z,8.90
2023-04-15T11:18:34.435Z,8.96
2023-04-15T11:21:07.859Z,8.90
2023-04-15T11:23:44.106Z,8.92
2023-04-15T11:26:15.354Z,8.98
2023-04-15T11:28:46.200Z,8.90
2023-04-15T11:31:19.894Z,8.90
2023-04-15T11:33:59.883Z,8.90
2023-04-15T11:36:29.029Z,8.90
2023-04-15T11:38:58.204Z,8.90
2023-04-15T11:41:25.251Z,8.90
2023-04-15T11:43:52.949Z,8.90
2023-04-15T11:46:21.452Z,8.90
2023-04-15T11:48:48.158Z,8.90
2023-04-15T11:51:14.933Z,9.00
2023-04-15T11:53:47.920Z,9.00
2023-04-15T11:56:21.949Z,9.10
2023-04-15T11:58:52.947Z,9.10
2023-04-15T12:01:20.157Z,9.10
2023-04-15T12:03:49.274Z,9.10
2023-04-15T12:06:22.672Z,9.20
2023-04-15T12:08:55.559Z,9.26
2023-04-15T12:11:30.856Z,9.30
2023-04-15T12:14:30.498Z,9.40
2023-04-15T12:17:06.921Z,9.50
2023-04-15T12:19:40.557Z,9.50
2023-04-15T12:22:13.974Z,9.46
2023-04-15T12:24:49.549Z,9.50
2023-04-15T12:27:17.617Z,9.54
2023-04-15T12:29:44.806Z,9.60
2023-04-15T12:32:21.018Z,9.54
2023-04-15T12:34:54.313Z,9.50
2023-04-15T12:37:21.748Z,9.50
2023-04-15T12:39:50.459Z,9.48
2023-04-15T12:42:18.435Z,9.40
2023-04-15T12:44:45.183Z,9.40
2023-04-15T12:47:13.305Z,9.50
2023-04-15T12:49:40.973Z,9.40
2023-04-15T12:52:08.083Z,9.50
2023-04-15T12:54:35.984Z,9.40
2023-04-15T12:57:06.804Z,9.40
2023-04-15T12:59:35.492Z,9.38
2023-04-15T13:02:04.496Z,9.34
2023-04-15T13:04:31.696Z,9.30
2023-04-15T13:06:58.676Z,9.30
2023-04-15T13:09:25.302Z,9.40
2023-04-15T13:11:52.899Z,9.40
2023-04-15T13:14:19.924Z,9.40
2023-04-15T13:16:46.571Z,9.40
2023-04-15T13:19:13.177Z,9.40
2023-04-15T13:21:39.799Z,9.40
2023-04-15T13:24:07.426Z,9.40
2023-04-15T13:26:34.327Z,9.34
2023-04-15T13:29:01.218Z,9.40
2023-04-15T13:31:27.972Z,9.40
2023-04-15T13:33:54.948Z,9.30
2023-04-15T13:36:21.650Z,9.30
2023-04-15T13:38:50.952Z,9.30
2023-04-15T13:41:18.254Z,9.30
2023-04-15T13:43:44.821Z,9.30
2023-04-15T13:46:11.496Z,9.30
2023-04-15T13:48:38.323Z,9.30
2023-04-15T13:51:05.114Z,9.30
2023-04-15T13:53:38.827Z,9.30
2023-04-15T13:56:08.392Z,9.30
2023-04-15T13:58:36.373Z,9.34
2023-04-15T14:01:05.828Z,9.40
2023-04-15T14:03:34.744Z,9.40
2023-04-15T14:06:01.588Z,9.48
2023-04-15T14:08:28.385Z,9.50
2023-04-15T14:10:55.087Z,9.50
2023-04-15T14:13:21.672Z,9.50
2023-04-15T14:15:48.300Z,9.40
2023-04-15T14:18:15.343Z,9.40
2023-04-15T14:20:41.923Z,9.32
2023-04-15T14:23:08.518Z,9.30
2023-04-15T14:25:35.138Z,9.20
2023-04-15T14:28:03.418Z,9.20
2023-04-15T14:30:30.877Z,9.20
2023-04-15T14:32:57.685Z,9.20
2023-04-15T14:35:26.570Z,9.30
2023-04-15T14:37:54.439Z,9.24
2023-04-15T14:40:21.546Z,9.20
2023-04-15T14:42:48.422Z,9.20
2023-04-15T14:45:15.156Z,9.20
2023-04-15T14:47:41.994Z,9.20
2023-04-15T14:50:09.831Z,9.20
2023-04-15T14:52:39.220Z,9.20
2023-04-15T14:55:11.148Z,9.20
2023-04-15T14:57:40.067Z,9.20
2023-04-15T15:00:08.763Z,9.14
2023-04-15T15:02:39.582Z,9.10
2023-04-15T15:05:08.448Z,9.10
2023-04-15T15:07:37.192Z,9.00
2023-04-15T15:10:05.310Z,9.00
2023-04-15T15:12:33.112Z,9.00
2023-04-15T15:15:00.469Z,9.00
2023-04-15T15:17:28.221Z,8.90
2023-04-15T15:19:54.782Z,8.90
2023-04-15T15:22:21.595Z,8.82
2023-04-15T15:24:48.387Z,8.80
2023-04-15T15:27:15.024Z,8.70
2023-04-15T15:29:41.798Z,8.70
2023-04-15T15:32:08.595Z,8.70
2023-04-15T15:34:35.272Z,8.62
2023-04-15T15:37:02.124Z,8.60
2023-04-15T15:39:28.767Z,8.56
2023-04-15T15:41:55.374Z,8.50
2023-04-15T15:44:22.011Z,8.50
2023-04-15T15:46:51.007Z,8.50
2023-04-15T15:49:18.072Z,8.40
2023-04-15T15:51:45.934Z,8.40
2023-04-15T15:54:13.010Z,8.40
2023-04-15T15:56:39.637Z,8.40
2023-04-15T15:59:06.560Z,8.40
2023-04-15T16:01:33.666Z,8.38
2023-04-15T16:04:00.908Z,8.40
2023-04-15T16:06:28.181Z,8.38
2023-04-15T16:08:55.075Z,8.40
2023-04-15T16:11:21.715Z,8.32
2023-04-15T16:13:48.544Z,8.30
2023-04-15T16:16:15.485Z,8.30
2023-04-15T16:18:42.247Z,8.30
2023-04-15T16:21:09.072Z,8.30
2023-04-15T16:23:37.094Z,8.30
2023-04-15T16:26:03.887Z,8.30
2023-04-15T16:28:30.546Z,8.30
2023-04-15T16:30:57.389Z,8.30
2023-04-15T16:33:24.461Z,8.26
2023-04-15T16:35:52.000Z,8.30
2023-04-15T16:38:18.674Z,8.28
2023-04-15T16:40:45.756Z,8.28
2023-04-15T16:43:12.321Z,8.30
2023-04-15T16:45:38.934Z,8.28
2023-04-15T16:48:06.008Z,8.20
2023-04-15T16:50:33.104Z,8.20
2023-04-15T16:52:59.696Z,8.20
2023-04-15T16:55:27.003Z,8.20
2023-04-15T16:58:02.117Z,8.20
2023-04-15T17:00:36.617Z,8.20
2023-04-15T17:03:05.939Z,8.20
2023-04-15T17:05:33.691Z,8.20
2023-04-15T17:08:00.795Z,8.20
2023-04-15T17:10:28.247Z,8.20
2023-04-15T17:12:58.271Z,8.12
2023-04-15T17:15:26.261Z,8.10
2023-04-15T17:17:53.225Z,8.10
2023-04-15T17:20:20.351Z,8.10
2023-04-15T17:22:48.740Z,8.10
2023-04-15T17:25:15.964Z,8.10
2023-04-15T17:27:42.667Z,8.10
2023-04-15T17:30:10.701Z,8.10
2023-04-15T17:32:39.467Z,8.10
2023-04-15T17:35:07.392Z,8.10
2023-04-15T17:37:34.665Z,8.10
2023-04-15T17:40:01.734Z,8.10
2023-04-15T17:42:28.948Z,8.10
2023-04-15T17:44:55.601Z,8.10
2023-04-15T17:47:22.352Z,8.10
2023-04-15T17:49:48.946Z,8.10
2023-04-15T17:52:15.597Z,8.10
2023-04-15T17:54:42.223Z,8.10
2023-04-15T17:57:09.559Z,8.10
2023-04-15T17:59:36.293Z,8.10
2023-04-15T18:02:02.962Z,8.10
2023-04-15T18:04:29.993Z,8.18
2023-04-15T18:06:56.803Z,8.18
2023-04-15T18:09:23.395Z,8.20
2023-04-15T18:11:49.965Z,8.20
2023-04-15T18:14:27.111Z,8.20
2023-04-15T18:17:00.745Z,8.20
2023-04-15T18:19:27.820Z,8.28
2023-04-15T18:21:54.426Z,8.30
2023-04-15T18:24:21.029Z,8.30
2023-04-15T18:26:49.222Z,8.30
2023-04-15T18:29:16.444Z,8.30
2023-04-15T18:31:43.236Z,8.28
2023-04-15T18:34:10.190Z,8.24
2023-04-15T18:36:36.855Z,8.20
2023-04-15T18:39:04.646Z,8.20
2023-04-15T18:41:31.412Z,8.20
2023-04-15T18:43:57.998Z,8.20
2023-04-15T18:46:24.820Z,8.20
2023-04-15T18:48:51.546Z,8.20
2023-04-15T18:51:18.144Z,8.20
2023-04-15T18:53:44.807Z,8.20
2023-04-15T18:56:11.441Z,8.14
2023-04-15T18:59:09.521Z,8.10
2023-04-15T19:01:24.801Z,8.10
2023-04-15T19:03:51.565Z,8.10
2023-04-15T19:06:18.264Z,8.10
2023-04-15T19:08:44.880Z,8.08
2023-04-15T19:11:11.516Z,8.00
2023-04-15T19:13:38.146Z,8.00
2023-04-15T19:16:05.271Z,8.00
2023-04-15T19:18:31.837Z,8.00
2023-04-15T19:20:58.637Z,8.00
2023-04-15T19:23:25.271Z,8.00
2023-04-15T19:25:51.918Z,8.00
2023-04-15T19:28:18.545Z,8.00
2023-04-15T19:30:45.174Z,8.00
2023-04-15T19:33:12.503Z,8.00
2023-04-15T19:35:40.991Z,8.00
2023-04-15T19:38:07.611Z,8.02
2023-04-15T19:40:34.202Z,8.10
2023-04-15T19:43:00.928Z,8.10
2023-04-15T19:45:27.571Z,8.10
2023-04-15T19:47:54.589Z,8.10
2023-04-15T19:50:25.868Z,8.10
2023-04-15T19:52:53.616Z,8.06
2023-04-15T19:55:20.390Z,8.04
2023-04-15T19:57:47.015Z,8.00
2023-04-15T20:00:13.730Z,8.00
2023-04-15T20:02:40.532Z,8.00
2023-04-15T20:05:09.812Z,8.00
2023-04-15T20:07:36.805Z,8.00
2023-04-15T20:10:12.078Z,7.92
2023-04-15T20:12:49.961Z,7.90
2023-04-15T20:15:21.573Z,7.90
2023-04-15T20:17:48.218Z,7.90
2023-04-15T20:20:15.096Z,7.90
2023-04-15T20:22:41.908Z,7.90
2023-04-15T20:25:09.077Z,7.90
2023-04-15T20:27:35.706Z,7.90
2023-04-15T20:30:04.958Z,7.94
2023-04-15T20:32:35.578Z,8.00
2023-04-15T20:35:04.843Z,8.00
2023-04-15T20:37:33.646Z,8.00
2023-04-15T20:40:01.245Z,8.00
2023-04-15T20:42:32.032Z,8.00
2023-04-15T20:44:58.718Z,8.10
2023-04-15T20:47:25.538Z,8.08
2023-04-15T20:49:52.354Z,8.10
2023-04-15T20:52:18.979Z,8.10
2023-04-15T20:54:47.061Z,8.10
2023-04-15T20:57:13.835Z,8.10
2023-04-15T20:59:40.414Z,8.08
2023-04-15T21:02:07.210Z,8.08
2023-04-15T21:04:33.965Z,8.08
2023-04-15T21:07:00.906Z,8.10
2023-04-15T21:09:27.591Z,8.10
2023-04-15T21:12:01.119Z,8.08
2023-04-15T21:14:29.278Z,8.10
2023-04-15T21:17:03.322Z,8.10
2023-04-15T21:19:29.911Z,8.10
2023-04-15T21:21:56.505Z,8.10
2023-04-15T21:24:23.120Z,8.10
2023-04-15T21:26:50.039Z,8.10
2023-04-15T21:29:16.652Z,8.10
2023-04-15T21:31:43.372Z,8.10
2023-04-15T21:34:10.732Z,8.10
2023-04-15T21:36:38.488Z,8.10
2023-04-15T21:39:06.263Z,8.10
2023-04-15T21:41:33.227Z,8.10
2023-04-15T21:43:59.852Z,8.10
2023-04-15T21:46:32.925Z,8.10
2023-04-15T21:49:01.990Z,8.10
2023-04-15T21:51:28.787Z,8.10
2023-04-15T21:53:55.971Z,8.10
2023-04-15T21:56:24.327Z,8.10
2023-04-15T21:58:56.840Z,8.10
2023-04-15T22:01:26.680Z,8.10
2023-04-15T22:03:54.278Z,8.10
2023-04-15T22:06:21.426Z,8.10
2023-04-15T22:08:56.725Z,8.10
2023-04-15T22:11:28.675Z,8.10
2023-04-15T22:13:59.381Z,8.10
2023-04-15T22:16:27.160Z,8.10
2023-04-15T22:18:55.755Z,8.12
2023-04-15T22:21:22.945Z,8.16
2023-04-15T22:23:52.055Z,8.20
2023-04-15T22:26:18.754Z,8.20
2023-04-15T22:28:45.542Z,8.20
2023-04-15T22:31:12.536Z,8.20
2023-04-15T22:33:39.233Z,8.16
2023-04-15T22:36:06.309Z,8.20
2023-04-15T22:38:32.986Z,8.20
2023-04-15T22:40:59.607Z,8.20
2023-04-15T22:43:27.508Z,8.20
2023-04-15T22:45:55.129Z,8.20
2023-04-15T22:48:22.203Z,8.10
2023-04-15T22:50:49.391Z,8.12
2023-04-15T22:53:17.260Z,8.10
2023-04-15T22:55:48.521Z,8.10
2023-04-15T22:58:17.179Z,8.10
2023-04-15T23:00:44.976Z,8.10
2023-04-15T23:03:11.858Z,8.10
2023-04-15T23:05:41.165Z,8.10
2023-04-15T23:08:08.287Z,8.10
2023-04-15T23:10:34.864Z,8.10
2023-04-15T23:13:01.484Z,8.10
2023-04-15T23:15:28.085Z,8.10
2023-04-15T23:17:54.738Z,8.10
2023-04-15T23:20:21.486Z,8.10
2023-04-15T23:22:48.128Z,8.10
2023-04-15T23:25:14.783Z,8.10
2023-04-15T23:27:41.391Z,8.10
2023-04-15T23:30:08.777Z,8.10
2023-04-15T23:32:35.427Z,8.06
2023-04-15T23:35:02.208Z,8.06
2023-04-15T23:37:33.602Z,8.06
2023-04-15T23:40:00.466Z,8.00
2023-04-15T23:42:27.067Z,8.00
2023-04-15T23:44:53.644Z,8.00
2023-04-15T23:47:21.021Z,8.00
2023-04-15T23:49:47.675Z,8.00
2023-04-15T23:52:14.600Z,8.00
2023-04-15T23:54:41.257Z,8.00
2023-04-15T23:57:07.872Z,8.00
2023-04-15T23:59:34.457Z,7.96
